Time;durP1;ratioP1;P1;durP2;ratioP2;P2;SDS_P1;SDS_P2;PMS_P1;PMS_P2;Temp;Humidity;BMP_temperature;BMP_pressure;BME280_temperature;BME280_humidity;BME280_pressure;Samples;Min_cycle;Max_cycle;Signal;HPM_P1;HPM_P2
2023/03/24 00:02:03;;;;;;;23.13;2.90;;;9.90;99.90;;;;;;5033598;28;20587;-51
2023/03/24 00:04:29;;;;;;;21.90;2.70;;;9.90;99.90;;;;;;5051029;28;20037;-51
2023/03/24 00:06:55;;;;;;;24.13;3.35;;;9.90;99.90;;;;;;5051571;28;20488;-45
2023/03/24 00:09:21;;;;;;;25.20;3.03;;;9.90;99.90;;;;;;5051253;28;20029;-46
2023/03/24 00:11:46;;;;;;;28.23;3.50;;;9.90;99.90;;;;;;5046773;28;20032;-55
2023/03/24 00:14:12;;;;;;;22.95;3.45;;;9.90;99.90;;;;;;5041594;28;20025;-50
2023/03/24 00:16:44;;;;;;;21.30;3.38;;;9.90;99.90;;;;;;5051273;28;20021;-49
2023/03/24 00:19:12;;;;;;;28.50;3.40;;;9.90;99.90;;;;;;5050767;28;20190;-47
2023/03/24 00:21:38;;;;;;;24.77;3.20;;;10.00;99.90;;;;;;5051463;28;20032;-48
2023/03/24 00:24:06;;;;;;;25.77;3.20;;;10.00;99.90;;;;;;5050940;28;20055;-53
2023/03/24 00:26:32;;;;;;;25.27;2.95;;;10.00;99.90;;;;;;5051161;28;20402;-53
2023/03/24 00:28:58;;;;;;;22.63;3.45;;;10.00;99.90;;;;;;5051133;28;20482;-46
2023/03/24 00:31:24;;;;;;;22.92;3.40;;;10.00;99.90;;;;;;5050865;28;20032;-45
2023/03/24 00:33:50;;;;;;;33.47;4.07;;;10.00;99.90;;;;;;5051157;28;20465;-46
2023/03/24 00:36:19;;;;;;;25.45;3.22;;;10.00;99.90;;;;;;5050124;28;20086;-46
2023/03/24 00:38:46;;;;;;;25.73;3.87;;;10.00;99.90;;;;;;5051090;28;20037;-46
2023/03/24 00:41:12;;;;;;;22.85;3.30;;;10.00;99.90;;;;;;5050763;28;20782;-46
2023/03/24 00:43:38;;;;;;;28.75;3.95;;;10.00;99.90;;;;;;5039344;28;20040;-46
2023/03/24 00:46:10;;;;;;;32.53;4.03;;;10.00;99.90;;;;;;5050518;28;20048;-46
2023/03/24 00:48:37;;;;;;;22.35;3.67;;;10.00;99.90;;;;;;5050660;28;20033;-46
2023/03/24 00:51:06;;;;;;;31.60;3.47;;;10.00;99.90;;;;;;5050680;28;20021;-49
2023/03/24 00:53:33;;;;;;;;;;;10.00;99.90;;;;;;5050878;28;20028;-54
2023/03/24 00:55:59;;;;;;;23.67;3.45;;;10.00;99.90;;;;;;5050651;28;19905;-51
2023/03/24 00:58:25;;;;;;;28.00;3.33;;;10.00;99.90;;;;;;5050303;28;20371;-47
2023/03/24 01:00:54;;;;;;;30.90;4.10;;;10.00;99.90;;;;;;5050322;28;20529;-46
2023/03/24 01:03:26;;;;;;;34.28;3.85;;;10.00;99.90;;;;;;5050272;28;20032;-49
2023/03/24 01:05:56;;;;;;;23.33;3.08;;;10.00;99.90;;;;;;5050564;28;20017;-57
2023/03/24 01:08:24;;;;;;;24.95;3.33;;;10.00;99.90;;;;;;5050548;28;20029;-47
2023/03/24 01:10:52;;;;;;;30.23;3.33;;;10.00;99.90;;;;;;5050413;28;20103;-55
2023/03/24 01:13:23;;;;;;;27.25;3.97;;;10.00;99.90;;;;;;5048223;28;20028;-47
2023/03/24 01:15:49;;;;;;;25.65;3.63;;;10.00;99.90;;;;;;5049954;28;20021;-51
2023/03/24 01:18:16;;;;;;;25.15;3.40;;;10.00;99.90;;;;;;5050355;28;20448;-49
2023/03/24 01:20:47;;;;;;;17.38;2.97;;;10.00;99.90;;;;;;5050262;28;20067;-52
2023/03/24 01:23:19;;;;;;;31.60;4.07;;;10.00;99.90;;;;;;5050363;28;20028;-52
2023/03/24 01:25:46;;;;;;;30.30;3.80;;;10.00;99.90;;;;;;5050162;28;20501;-49
2023/03/24 01:28:14;;;;;;;35.83;4.10;;;9.90;99.90;;;;;;5050424;28;20044;-51
2023/03/24 01:30:40;;;;;;;27.15;4.03;;;9.90;99.90;;;;;;5050183;28;20032;-46
2023/03/24 01:33:06;;;;;;;26.80;3.40;;;9.80;99.90;;;;;;5050156;28;20029;-46
2023/03/24 01:35:32;;;;;;;22.73;4.00;;;9.80;99.90;;;;;;5050203;28;20021;-47
2023/03/24 01:37:58;;;;;;;25.42;3.45;;;9.80;99.90;;;;;;5050134;28;20036;-49
2023/03/24 01:40:28;;;;;;;24.67;3.25;;;9.80;99.90;;;;;;5050173;28;20025;-51
2023/03/24 01:42:54;;;;;;;27.80;3.97;;;9.70;99.90;;;;;;5036526;28;20049;-46
2023/03/24 01:45:38;;;;;;;27.45;4.05;;;9.80;99.90;;;;;;5037792;28;20025;-46
2023/03/24 01:48:08;;;;;;;28.45;4.47;;;9.70;99.90;;;;;;5033355;28;20486;-49
2023/03/24 01:50:34;;;;;;;33.55;4.70;;;9.70;99.90;;;;;;5053592;28;20033;-52
2023/03/24 01:53:00;;;;;;;29.08;3.65;;;9.70;99.90;;;;;;5052388;28;20035;-48
2023/03/24 01:55:28;;;;;;;26.00;3.72;;;9.70;99.90;;;;;;5052682;28;20060;-46
2023/03/24 01:57:59;;;;;;;38.72;4.30;;;9.70;99.90;;;;;;5050710;28;20033;-46
2023/03/24 02:00:24;;;;;;;24.40;3.47;;;9.60;99.90;;;;;;5036080;28;20087;-46
2023/03/24 02:02:58;;;;;;;28.85;3.90;;;9.70;99.90;;;;;;5049714;28;20044;-46
2023/03/24 02:05:30;;;;;;;38.45;5.05;;;9.70;99.90;;;;;;5053306;28;20021;-45
2023/03/24 02:08:06;;;;;;;37.80;4.30;;;9.70;99.90;;;;;;5039749;28;20465;-51
2023/03/24 02:10:34;;;;;;;31.08;4.38;;;9.70;99.90;;;;;;5053488;28;20511;-49
2023/03/24 02:13:00;;;;;;;37.30;4.03;;;9.70;99.90;;;;;;5040211;28;20016;-51
2023/03/24 02:15:28;;;;;;;39.75;5.43;;;9.70;99.90;;;;;;5035490;28;20387;-48
2023/03/24 02:18:32;;;;;;;28.13;3.50;;;9.70;99.90;;;;;;5052451;28;20544;-50
2023/03/24 02:21:17;;;;;;;36.03;4.18;;;9.70;99.90;;;;;;5049003;28;20037;-49
2023/03/24 02:23:52;;;;;;;27.38;3.67;;;9.70;99.90;;;;;;5044967;28;20397;-47
2023/03/24 02:26:21;;;;;;;33.10;3.67;;;9.70;99.90;;;;;;5053256;28;20028;-45
2023/03/24 02:28:58;;;;;;;30.90;5.40;;;9.70;99.90;;;;;;5045947;28;20028;-45
2023/03/24 02:31:33;;;;;;;29.33;4.20;;;9.70;99.90;;;;;;5053131;28;20029;-51
2023/03/24 02:34:36;;;;;;;31.67;3.88;;;9.70;99.90;;;;;;5053059;28;20528;-49
2023/03/24 02:37:39;;;;;;;24.17;3.67;;;9.70;99.90;;;;;;5024567;28;20454;-49
2023/03/24 02:40:24;;;;;;;22.35;3.92;;;9.70;99.90;;;;;;5039633;28;20106;-48
2023/03/24 02:42:55;;;;;;;29.38;4.07;;;9.60;99.90;;;;;;5052518;28;20037;-57
2023/03/24 02:45:40;;;;;;;25.70;3.45;;;9.60;99.90;;;;;;5052738;28;20099;-52
2023/03/24 02:48:09;;;;;;;29.23;3.60;;;9.60;99.90;;;;;;5052672;28;20044;-49
2023/03/24 02:50:47;;;;;;;26.45;4.20;;;9.60;99.90;;;;;;5053144;28;20025;-51
2023/03/24 02:53:23;;;;;;;28.02;4.22;;;9.60;99.90;;;;;;5052627;28;20025;-50
2023/03/24 02:56:28;;;;;;;30.52;3.65;;;9.50;99.90;;;;;;5052683;28;20052;-47
2023/03/24 02:59:10;;;;;;;30.05;3.53;;;9.50;99.90;;;;;;5015739;28;20036;-46
2023/03/24 03:01:53;;;;;;;37.97;3.58;;;9.50;99.90;;;;;;5052297;28;20338;-50
2023/03/24 03:04:28;;;;;;;25.52;3.45;;;9.50;99.90;;;;;;5052623;28;20108;-51
2023/03/24 03:06:57;;;;;;;34.50;4.85;;;9.40;99.90;;;;;;5052325;28;20025;-47
2023/03/24 03:09:26;;;;;;;27.00;3.63;;;9.30;99.90;;;;;;5052447;28;20028;-52
2023/03/24 03:11:56;;;;;;;29.55;3.75;;;9.20;99.90;;;;;;5052041;28;20082;-46
2023/03/24 03:14:29;;;;;;;27.70;3.92;;;9.20;99.90;;;;;;5052024;28;20017;-49
2023/03/24 03:17:08;;;;;;;24.88;3.42;;;9.10;99.90;;;;;;5052111;28;20037;-49
2023/03/24 03:19:39;;;;;;;35.47;4.65;;;9.10;99.90;;;;;;5051850;28;20041;-48
2023/03/24 03:22:14;;;;;;;36.05;3.90;;;9.00;99.90;;;;;;5034121;28;20512;-44
2023/03/24 03:24:43;;;;;;;30.45;4.65;;;9.10;99.90;;;;;;5052219;28;20056;-45
2023/03/24 03:27:15;;;;;;;33.03;4.07;;;9.10;99.90;;;;;;5047692;28;20031;-51
2023/03/24 03:29:49;;;;;;;30.63;3.45;;;9.20;99.90;;;;;;5050585;28;20521;-54
2023/03/24 03:32:26;;;;;;;28.75;4.13;;;9.20;99.90;;;;;;5052082;28;20029;-47
2023/03/24 03:35:12;;;;;;;21.00;3.13;;;9.30;99.90;;;;;;5051712;28;20032;-52
2023/03/24 03:37:58;;;;;;;34.45;3.70;;;9.30;99.90;;;;;;5051719;28;20025;-45
2023/03/24 03:40:36;;;;;;;26.38;3.80;;;9.30;99.90;;;;;;5052191;28;20025;-48
2023/03/24 03:43:03;;;;;;;31.30;3.50;;;9.30;99.90;;;;;;5033631;28;20041;-50
2023/03/24 03:45:29;;;;;;;26.05;3.20;;;9.30;99.90;;;;;;5051387;28;20021;-46
2023/03/24 03:47:55;;;;;;;37.67;4.07;;;9.30;99.90;;;;;;5051594;28;20046;-50
2023/03/24 03:50:20;;;;;;;21.27;2.88;;;9.20;99.90;;;;;;5051571;28;20021;-50
2023/03/24 03:52:47;;;;;;;26.20;2.63;;;9.30;99.90;;;;;;5051501;28;20405;-46
2023/03/24 03:55:13;;;;;;;19.67;2.88;;;9.30;99.90;;;;;;5034055;28;20021;-46
2023/03/24 03:57:42;;;;;;;28.40;3.13;;;9.20;99.90;;;;;;5030946;28;20485;-45
2023/03/24 04:00:19;;;;;;;21.25;2.67;;;9.20;99.90;;;;;;5051762;28;20057;-45
2023/03/24 04:02:58;;;;;;;18.52;3.40;;;9.20;99.90;;;;;;5051396;28;20108;-46
2023/03/24 04:05:34;;;;;;;26.70;4.15;;;9.20;99.90;;;;;;5051521;28;20029;-45
2023/03/24 04:08:22;;;;;;;16.15;2.75;;;9.20;99.90;;;;;;5051160;28;20028;-49
2023/03/24 04:11:18;;;;;;;29.52;2.50;;;9.20;99.90;;;;;;5032917;28;20359;-49
2023/03/24 04:14:05;;;;;;;25.55;3.30;;;9.10;99.90;;;;;;5051216;28;20028;-45
2023/03/24 04:16:58;;;;;;;20.00;2.88;;;9.00;99.90;;;;;;5039021;28;20116;-47
2023/03/24 04:19:24;;;;;;;27.80;2.95;;;8.90;99.90;;;;;;5045970;28;20051;-45
2023/03/24 04:21:59;;;;;;;26.00;3.63;;;8.90;99.90;;;;;;5044309;28;20397;-45
2023/03/24 04:24:53;;;;;;;22.83;2.50;;;8.80;99.90;;;;;;5050840;28;20037;-47
2023/03/24 04:27:55;;;;;;;24.42;2.85;;;8.60;99.90;;;;;;5051154;28;20100;-51
2023/03/24 04:30:36;;;;;;;22.20;2.70;;;8.60;99.90;;;;;;5003908;28;20041;-46
2023/03/24 04:33:24;;;;;;;30.92;3.20;;;8.60;99.90;;;;;;5050686;28;20024;-46
2023/03/24 04:36:09;;;;;;;28.35;4.40;;;8.50;99.90;;;;;;5050722;28;20033;-47
2023/03/24 04:38:37;;;;;;;18.52;3.13;;;8.50;99.90;;;;;;5050837;28;20104;-49
2023/03/24 04:41:04;;;;;;;22.27;2.80;;;8.50;99.90;;;;;;5033373;28;20024;-46
2023/03/24 04:43:35;;;;;;;24.70;2.55;;;8.60;99.90;;;;;;5050569;28;20033;-53
2023/03/24 04:46:03;;;;;;;28.35;3.65;;;8.50;99.90;;;;;;5045584;28;20470;-46
2023/03/24 04:48:29;;;;;;;27.35;3.20;;;8.60;99.90;;;;;;5039094;28;20112;-47
2023/03/24 04:50:57;;;;;;;22.23;2.97;;;8.60;99.90;;;;;;5044040;28;20485;-48
2023/03/24 04:53:23;;;;;;;24.95;3.33;;;8.60;99.90;;;;;;5049415;28;20040;-48
2023/03/24 04:55:49;;;;;;;25.52;3.58;;;8.60;99.90;;;;;;5029336;28;20025;-46
2023/03/24 04:58:15;;;;;;;21.77;2.38;;;8.70;99.90;;;;;;5048748;28;20021;-51
2023/03/24 05:00:42;;;;;;;30.70;3.33;;;8.80;99.90;;;;;;5049189;28;20025;-51
2023/03/24 05:03:12;;;;;;;30.85;4.10;;;8.80;99.90;;;;;;5032667;28;20178;-45
2023/03/24 05:05:42;;;;;;;25.15;2.95;;;8.80;99.90;;;;;;5049269;28;20032;-46
2023/03/24 05:08:07;;;;;;;30.83;3.97;;;8.90;99.90;;;;;;5047960;28;20482;-54
2023/03/24 05:10:34;;;;;;;30.65;3.88;;;8.90;99.90;;;;;;5048942;28;20036;-50
2023/03/24 05:13:00;;;;;;;32.22;3.97;;;9.00;99.90;;;;;;5047393;28;20021;-54
2023/03/24 05:15:26;;;;;;;27.98;4.05;;;9.10;99.90;;;;;;5048991;28;20039;-46
2023/03/24 05:17:52;;;;;;;32.03;3.63;;;9.20;99.90;;;;;;5048164;28;20025;-45
2023/03/24 05:20:18;;;;;;;35.55;3.83;;;9.10;99.90;;;;;;5044521;28;20033;-49
2023/03/24 05:22:44;;;;;;;33.00;4.45;;;9.20;99.90;;;;;;5052034;28;20037;-46
2023/03/24 05:25:10;;;;;;;29.10;4.15;;;9.20;99.90;;;;;;5051703;28;20489;-45
2023/03/24 05:27:36;;;;;;;29.90;3.58;;;9.30;99.90;;;;;;5054333;28;20438;-46
2023/03/24 05:30:04;;;;;;;29.50;4.07;;;9.30;99.90;;;;;;5054428;28;20028;-54
2023/03/24 05:32:29;;;;;;;32.30;3.97;;;9.40;99.90;;;;;;5054189;28;20025;-48
2023/03/24 05:34:55;;;;;;;31.88;4.10;;;9.40;99.90;;;;;;5054116;28;20040;-52
2023/03/24 05:37:21;;;;;;;30.42;4.07;;;9.50;99.90;;;;;;5054197;28;20120;-49
2023/03/24 05:39:47;;;;;;;38.60;4.85;;;9.50;99.90;;;;;;5054096;28;20079;-46
2023/03/24 05:42:13;;;;;;;39.97;5.80;;;9.60;99.90;;;;;;5053693;28;20025;-50
2023/03/24 05:44:38;;;;;;;39.40;4.25;;;9.60;99.90;;;;;;5054201;28;20069;-51
2023/03/24 05:47:04;;;;;;;35.67;4.50;;;9.60;99.90;;;;;;5053811;28;20028;-45
2023/03/24 05:49:30;;;;;;;54.05;5.28;;;9.60;99.90;;;;;;5032749;28;20033;-45
2023/03/24 05:51:56;;;;;;;45.92;4.68;;;9.60;99.90;;;;;;5048120;28;20036;-44
2023/03/24 05:54:22;;;;;;;41.08;5.57;;;9.70;99.90;;;;;;5053875;28;20033;-52
2023/03/24 05:56:48;;;;;;;29.85;4.70;;;9.70;99.90;;;;;;5054127;28;20104;-57
2023/03/24 05:59:14;;;;;;;34.67;4.53;;;9.70;99.90;;;;;;5043188;28;20096;-45
2023/03/24 06:01:41;;;;;;;37.10;4.70;;;9.70;99.90;;;;;;5035723;28;20025;-52
2023/03/24 06:04:07;;;;;;;33.33;4.22;;;9.60;99.90;;;;;;5035721;28;20533;-47
2023/03/24 06:06:33;;;;;;;43.17;4.80;;;9.70;99.90;;;;;;5053710;28;20473;-45
2023/03/24 06:09:01;;;;;;;39.33;4.57;;;9.70;99.90;;;;;;5053298;28;20099;-45
2023/03/24 06:11:27;;;;;;;36.65;4.38;;;9.70;99.90;;;;;;5053657;28;20268;-46
2023/03/24 06:13:58;;;;;;;41.25;4.88;;;9.70;99.90;;;;;;5053441;28;20029;-49
2023/03/24 06:16:25;;;;;;;37.67;4.55;;;9.60;99.90;;;;;;5053265;28;20031;-45
2023/03/24 06:18:51;;;;;;;27.65;3.70;;;9.60;99.90;;;;;;5053138;28;20132;-44
2023/03/24 06:21:18;;;;;;;35.80;3.92;;;9.60;99.90;;;;;;5052876;28;20108;-46
2023/03/24 06:23:45;;;;;;;39.58;4.32;;;9.60;99.90;;;;;;5053217;28;20549;-48
2023/03/24 06:26:13;;;;;;;32.38;4.20;;;9.60;99.90;;;;;;5051624;28;20029;-49
2023/03/24 06:28:40;;;;;;;26.80;3.58;;;9.70;99.90;;;;;;5053076;28;20031;-49
2023/03/24 06:31:13;;;;;;;24.20;4.38;;;9.70;99.90;;;;;;5053156;28;20029;-50
2023/03/24 06:33:41;;;;;;;25.60;3.85;;;9.70;99.90;;;;;;5052280;28;20032;-49
2023/03/24 06:36:07;;;;;;;21.67;3.70;;;9.70;99.90;;;;;;5052756;28;20063;-49
2023/03/24 06:38:33;;;;;;;31.45;3.33;;;9.80;99.90;;;;;;5052906;28;20025;-55
2023/03/24 06:41:00;;;;;;;28.58;3.80;;;9.80;99.90;;;;;;5052975;28;20432;-49
2023/03/24 06:43:26;;;;;;;38.30;3.67;;;9.80;99.90;;;;;;5052724;28;20036;-49
2023/03/24 06:45:51;;;;;;;25.98;3.80;;;9.70;99.90;;;;;;5046430;28;20100;-45
2023/03/24 06:48:17;;;;;;;21.80;3.17;;;9.60;99.90;;;;;;5037412;28;20387;-55
2023/03/24 06:50:43;;;;;;;29.90;3.17;;;9.60;99.90;;;;;;5045518;28;20023;-51
2023/03/24 06:53:08;;;;;;;16.58;2.50;;;9.60;99.90;;;;;;5036031;28;20025;-50
2023/03/24 06:55:34;;;;;;;17.85;2.88;;;9.70;99.90;;;;;;5039242;28;20024;-47
2023/03/24 06:58:00;;;;;;;17.70;2.50;;;9.90;99.90;;;;;;5035925;28;20022;-50
2023/03/24 07:00:28;;;;;;;22.23;2.72;;;9.90;99.90;;;;;;5049972;28;20037;-49
2023/03/24 07:02:54;;;;;;;24.63;3.13;;;9.90;99.90;;;;;;5035822;28;20049;-49
2023/03/24 07:05:21;;;;;;;23.05;2.60;;;9.90;99.90;;;;;;5037595;28;20033;-51
2023/03/24 07:07:47;;;;;;;16.17;2.38;;;9.90;99.90;;;;;;5034591;28;20013;-54
2023/03/24 07:10:13;;;;;;;21.00;2.83;;;10.00;99.90;;;;;;5041791;28;20037;-48
2023/03/24 07:12:39;;;;;;;25.83;3.10;;;10.10;99.90;;;;;;5035632;28;20025;-45
2023/03/24 07:15:07;;;;;;;16.75;2.58;;;10.10;99.90;;;;;;5035724;28;20025;-48
2023/03/24 07:17:33;;;;;;;20.77;2.65;;;10.10;99.90;;;;;;5031645;28;20496;-44
2023/03/24 07:19:58;;;;;;;21.38;2.95;;;10.10;99.90;;;;;;5033425;28;20116;-44
2023/03/24 07:22:24;;;;;;;18.08;2.95;;;10.10;99.90;;;;;;5037872;28;20025;-45
2023/03/24 07:24:51;;;;;;;18.50;2.70;;;10.00;99.90;;;;;;5037248;28;20037;-45
2023/03/24 07:27:17;;;;;;;14.05;2.08;;;10.10;99.90;;;;;;5034363;28;20028;-45
2023/03/24 07:29:42;;;;;;;25.08;2.90;;;10.10;99.90;;;;;;5051816;28;20033;-45
2023/03/24 07:32:08;;;;;;;23.13;2.47;;;10.20;99.90;;;;;;5051608;28;20021;-45
2023/03/24 07:34:35;;;;;;;24.15;2.50;;;10.30;99.90;;;;;;5051896;28;20035;-45
2023/03/24 07:37:01;;;;;;;24.02;3.45;;;10.30;99.90;;;;;;5051909;28;20021;-46
2023/03/24 07:39:27;;;;;;;17.08;2.60;;;10.50;99.90;;;;;;5033935;28;20032;-45
2023/03/24 07:41:52;;;;;;;21.08;2.53;;;10.70;99.90;;;;;;5032093;28;20033;-53
2023/03/24 07:44:18;;;;;;;13.48;2.60;;;10.90;99.90;;;;;;5049893;28;20044;-57
2023/03/24 07:46:44;;;;;;;22.05;3.13;;;10.90;99.90;;;;;;5047808;28;20096;-51
2023/03/24 07:49:10;;;;;;;25.13;3.13;;;10.90;99.90;;;;;;5044155;28;21912;-55
2023/03/24 07:51:36;;;;;;;20.92;2.55;;;11.00;99.90;;;;;;5038149;28;20029;-49
2023/03/24 07:54:02;;;;;;;25.85;2.53;;;10.90;99.90;;;;;;5041588;28;20507;-52
2023/03/24 07:56:27;;;;;;;26.05;3.33;;;10.80;99.90;;;;;;5042114;28;20067;-48
2023/03/24 07:58:53;;;;;;;19.25;2.88;;;10.70;99.90;;;;;;5043827;28;20469;-45
2023/03/24 08:01:19;;;;;;;22.02;3.38;;;10.70;99.90;;;;;;5040016;28;20111;-45
2023/03/24 08:03:47;;;;;;;23.58;3.40;;;10.80;99.90;;;;;;5045059;28;20036;-49
2023/03/24 08:06:13;;;;;;;23.58;2.92;;;10.90;99.90;;;;;;5039390;28;20057;-52
2023/03/24 08:08:39;;;;;;;28.20;3.45;;;11.00;99.90;;;;;;5044646;28;20025;-50
2023/03/24 08:11:05;;;;;;;25.38;2.67;;;11.10;99.90;;;;;;5041130;28;20052;-49
2023/03/24 08:13:31;;;;;;;17.48;3.42;;;11.10;99.90;;;;;;5042409;28;20409;-55
2023/03/24 08:15:57;;;;;;;21.88;3.40;;;11.30;99.90;;;;;;5042887;28;20017;-45
2023/03/24 08:18:24;;;;;;;30.05;3.55;;;11.30;99.90;;;;;;5040342;28;20060;-49
2023/03/24 08:20:55;;;;;;;29.13;4.47;;;11.40;99.90;;;;;;5042527;28;20484;-48
2023/03/24 08:23:21;;;;;;;22.88;3.53;;;11.40;99.90;;;;;;5044523;28;20411;-50
2023/03/24 08:25:49;;;;;;;28.95;3.10;;;11.40;99.90;;;;;;5046585;28;20013;-45
2023/03/24 08:28:15;;;;;;;25.80;3.70;;;11.30;99.90;;;;;;5049341;28;20462;-51
2023/03/24 08:30:44;;;;;;;26.38;4.00;;;11.40;99.90;;;;;;5038299;28;20382;-45
2023/03/24 08:33:12;;;;;;;25.70;3.85;;;11.60;99.90;;;;;;5042367;28;20041;-44
2023/03/24 08:35:38;;;;;;;28.85;4.00;;;11.60;99.90;;;;;;5048102;28;20021;-45
2023/03/24 08:38:05;;;;;;;29.50;3.72;;;11.50;99.90;;;;;;5026890;28;20033;-51
2023/03/24 08:40:33;;;;;;;27.15;3.45;;;11.20;99.90;;;;;;5045825;28;20063;-49
2023/03/24 08:43:01;;;;;;;34.63;4.00;;;11.10;99.90;;;;;;5037248;28;20033;-53
2023/03/24 08:45:29;;;;;;;28.63;3.95;;;11.20;99.90;;;;;;5042207;28;20064;-49
2023/03/24 08:47:57;;;;;;;23.10;3.25;;;11.20;99.90;;;;;;5018429;28;20025;-54
2023/03/24 08:50:26;;;;;;;29.13;3.75;;;11.20;99.90;;;;;;5039223;28;20021;-47
2023/03/24 08:52:53;;;;;;;27.92;3.95;;;11.30;99.90;;;;;;5041726;28;20549;-46
2023/03/24 08:55:20;;;;;;;23.17;3.22;;;11.50;99.90;;;;;;5045188;28;20024;-48
2023/03/24 08:57:47;;;;;;;26.38;3.63;;;11.70;99.90;;;;;;5044127;28;20024;-47
2023/03/24 09:00:14;;;;;;;20.95;3.15;;;11.90;99.90;;;;;;5044411;28;20040;-49
2023/03/24 09:02:48;;;;;;;24.98;4.05;;;12.00;99.90;;;;;;5045623;28;20072;-57
2023/03/24 09:05:15;;;;;;;22.15;3.40;;;12.10;99.90;;;;;;5023904;28;20410;-49
2023/03/24 09:07:41;;;;;;;18.77;3.08;;;12.60;99.90;;;;;;5045264;28;20083;-46
2023/03/24 09:10:09;;;;;;;17.13;2.47;;;13.10;99.90;;;;;;5047764;28;20025;-50
2023/03/24 09:12:38;;;;;;;17.65;2.60;;;13.10;99.90;;;;;;5045753;28;20033;-47
2023/03/24 09:15:06;;;;;;;22.10;3.55;;;13.50;99.90;;;;;;5036519;28;20028;-48
2023/03/24 09:17:32;;;;;;;11.30;2.35;;;13.90;99.90;;;;;;5046907;28;20453;-53
2023/03/24 09:19:58;;;;;;;13.68;2.38;;;13.80;99.90;;;;;;5047150;28;20049;-45
2023/03/24 09:22:23;;;;;;;11.23;1.42;;;13.50;99.90;;;;;;5047599;28;20036;-44
2023/03/24 09:24:49;;;;;;;11.57;2.75;;;13.10;99.90;;;;;;5044908;28;20029;-46
2023/03/24 09:27:16;;;;;;;12.85;1.73;;;12.30;99.90;;;;;;5050311;28;20104;-48
2023/03/24 09:29:42;;;;;;;9.45;1.80;;;11.90;99.90;;;;;;5050325;28;20083;-43
2023/03/24 09:32:08;;;;;;;18.92;2.10;;;11.80;99.90;;;;;;5044325;28;20022;-45
2023/03/24 09:34:35;;;;;;;15.25;2.47;;;11.80;99.90;;;;;;5042738;28;20505;-45
2023/03/24 09:37:01;;;;;;;16.48;2.35;;;11.80;99.90;;;;;;5039472;28;20520;-45
2023/03/24 09:39:26;;;;;;;20.13;2.30;;;11.70;99.90;;;;;;5046595;28;20037;-45
2023/03/24 09:41:54;;;;;;;20.20;2.30;;;11.50;99.90;;;;;;5043381;28;20485;-44
2023/03/24 09:44:26;;;;;;;18.50;2.45;;;11.50;99.90;;;;;;5029517;28;20047;-44
2023/03/24 09:46:59;;;;;;;18.25;2.38;;;11.50;99.90;;;;;;5044214;28;20033;-46
2023/03/24 09:49:32;;;;;;;24.23;3.80;;;11.60;99.90;;;;;;5019770;28;20025;-47
2023/03/24 09:52:11;;;;;;;21.73;3.15;;;11.60;99.90;;;;;;5038937;28;20440;-48
2023/03/24 09:54:53;;;;;;;19.73;2.47;;;11.60;99.90;;;;;;5034166;28;20025;-45
2023/03/24 09:57:31;;;;;;;16.52;2.30;;;11.50;99.90;;;;;;5037474;28;20063;-46
2023/03/24 09:59:57;;;;;;;19.90;3.13;;;11.40;99.90;;;;;;5034062;28;20025;-46
2023/03/24 10:02:22;;;;;;;23.65;2.58;;;11.40;99.90;;;;;;5037464;28;20021;-51
2023/03/24 10:04:49;;;;;;;17.67;3.20;;;11.40;99.90;;;;;;5040741;28;20033;-45
2023/03/24 10:07:31;;;;;;;25.60;3.35;;;11.50;99.90;;;;;;5030424;28;20023;-43
2023/03/24 10:09:58;;;;;;;17.75;2.53;;;11.60;99.90;;;;;;5037681;28;20063;-44
2023/03/24 10:12:41;;;;;;;19.13;2.72;;;11.60;99.90;;;;;;5041153;28;20496;-43
2023/03/24 10:15:28;;;;;;;22.55;3.08;;;11.50;99.90;;;;;;5037515;28;20040;-46
2023/03/24 10:18:00;;;;;;;23.20;3.22;;;11.50;99.90;;;;;;5027559;28;20035;-45
2023/03/24 10:20:31;;;;;;;27.02;3.28;;;11.60;99.90;;;;;;5026349;28;20106;-43
2023/03/24 10:23:23;;;;;;;16.02;2.30;;;11.60;99.90;;;;;;5039258;28;20498;-49
2023/03/24 10:26:46;;;;;;;21.88;3.20;;;11.50;99.90;;;;;;5042556;28;20526;-51
2023/03/24 10:29:23;;;;;;;25.45;2.97;;;11.50;99.90;;;;;;4953204;28;20031;-51
2023/03/24 10:32:11;;;;;;;18.75;2.40;;;11.60;99.90;;;;;;4952424;29;20504;-44
2023/03/24 10:34:38;;;;;;;23.00;2.42;;;11.60;99.90;;;;;;5021020;28;20044;-51
2023/03/24 10:37:04;;;;;;;17.58;3.55;;;11.70;99.90;;;;;;5051190;28;20021;-46
2023/03/24 10:39:30;;;;;;;29.77;4.43;;;11.90;99.90;;;;;;5052429;28;20029;-51
2023/03/24 10:41:58;;;;;;;25.20;2.75;;;12.10;99.90;;;;;;5050921;28;20029;-48
2023/03/24 10:44:25;;;;;;;17.42;2.75;;;12.20;99.90;;;;;;5051876;28;20056;-47
2023/03/24 10:46:55;;;;;;;21.35;3.28;;;12.20;99.90;;;;;;5030553;28;20120;-44
2023/03/24 10:49:22;;;;;;;22.88;3.33;;;12.40;99.90;;;;;;5039128;28;20037;-44
2023/03/24 10:51:55;;;;;;;22.83;3.35;;;12.70;99.90;;;;;;5051322;28;20125;-42
2023/03/24 10:54:25;;;;;;;21.35;2.70;;;12.70;99.90;;;;;;5047563;28;20017;-49
2023/03/24 10:56:57;;;;;;;23.08;2.80;;;12.50;99.90;;;;;;5039647;28;20026;-45
2023/03/24 10:59:31;;;;;;;16.50;2.13;;;12.30;99.90;;;;;;5042477;28;20034;-46
2023/03/24 11:02:08;;;;;;;21.60;3.30;;;12.20;99.90;;;;;;5031856;28;20522;-51
2023/03/24 11:04:40;;;;;;;27.17;3.15;;;12.10;99.90;;;;;;5044627;28;20041;-42
2023/03/24 11:07:19;;;;;;;23.98;3.17;;;12.00;99.90;;;;;;5044845;28;20021;-49
2023/03/24 11:10:12;;;;;;;25.95;3.42;;;12.20;99.90;;;;;;5044175;28;20025;-47
2023/03/24 11:12:40;;;;;;;24.02;2.80;;;12.70;99.90;;;;;;5033679;28;20025;-44
2023/03/24 11:15:22;;;;;;;21.83;4.03;;;13.20;99.90;;;;;;5043433;28;20036;-43
2023/03/24 11:17:53;;;;;;;21.35;3.08;;;13.70;99.90;;;;;;5034481;28;20025;-43
2023/03/24 11:20:42;;;;;;;19.27;2.75;;;14.20;99.90;;;;;;5041459;28;20030;-43
2023/03/24 11:23:10;;;;;;;17.25;2.58;;;14.60;99.90;;;;;;5036917;28;20501;-46
2023/03/24 11:25:39;;;;;;;17.30;3.03;;;15.80;99.90;;;;;;5048052;28;20032;-49
2023/03/24 11:28:14;;;;;;;23.75;3.78;;;16.60;99.90;;;;;;5048852;28;20026;-47
2023/03/24 11:30:46;;;;;;;20.02;2.95;;;15.90;99.90;;;;;;5037560;28;20036;-45
2023/03/24 11:33:28;;;;;;;20.67;3.22;;;15.30;99.90;;;;;;5041803;28;20098;-46
2023/03/24 11:35:53;;;;;;;22.85;3.38;;;14.60;99.90;;;;;;5034288;28;20037;-44
2023/03/24 11:38:30;;;;;;;18.65;2.88;;;14.10;99.90;;;;;;5038851;28;20077;-46
2023/03/24 11:40:58;;;;;;;22.20;3.00;;;13.70;99.90;;;;;;5040682;28;20498;-52
2023/03/24 11:43:26;;;;;;;26.20;3.15;;;13.50;99.90;;;;;;5043580;28;20440;-49
2023/03/24 11:46:08;;;;;;;22.15;3.45;;;13.30;99.90;;;;;;5046618;28;20037;-46
2023/03/24 11:48:48;;;;;;;22.10;3.72;;;13.30;99.90;;;;;;5041632;28;20509;-46
2023/03/24 11:51:27;;;;;;;25.20;4.03;;;13.10;99.90;;;;;;5034215;28;20040;-45
2023/03/24 11:53:55;;;;;;;27.23;3.55;;;13.20;99.90;;;;;;5030494;28;20029;-44
2023/03/24 11:56:27;;;;;;;18.48;2.60;;;13.60;99.90;;;;;;5033722;28;20539;-48
2023/03/24 11:58:59;;;;;;;19.20;3.60;;;13.70;99.90;;;;;;5046018;28;20033;-51
2023/03/24 12:01:30;;;;;;;24.65;3.05;;;13.90;99.90;;;;;;5040943;28;20029;-48
2023/03/24 12:04:32;;;;;;;23.83;3.20;;;13.80;99.90;;;;;;5044959;28;20044;-45
2023/03/24 12:07:29;;;;;;;25.90;3.63;;;13.80;99.90;;;;;;5047303;28;20021;-44
2023/03/24 12:10:01;;;;;;;20.15;3.10;;;14.00;99.90;;;;;;5046347;28;20029;-50
2023/03/24 12:12:55;;;;;;;27.63;3.67;;;14.10;99.90;;;;;;5047522;28;20040;-44
2023/03/24 12:15:39;;;;;;;18.05;2.83;;;13.90;99.90;;;;;;5041702;28;20045;-47
2023/03/24 12:18:29;;;;;;;23.65;3.78;;;14.00;99.90;;;;;;5047145;28;20021;-50
2023/03/24 12:21:25;;;;;;;23.55;3.20;;;13.80;99.90;;;;;;5037871;28;20428;-50
2023/03/24 12:23:50;;;;;;;17.20;3.08;;;13.70;99.90;;;;;;5008754;28;20188;-55
2023/03/24 12:26:19;;;;;;;22.65;3.08;;;14.00;99.90;;;;;;5046935;28;20048;-51
2023/03/24 12:29:01;;;;;;;19.42;3.20;;;13.90;99.90;;;;;;5045040;28;20560;-46
2023/03/24 12:31:52;;;;;;;25.98;4.03;;;13.90;99.90;;;;;;5042607;28;20057;-45
2023/03/24 12:34:18;;;;;;;18.08;2.78;;;13.30;99.90;;;;;;5046268;28;20569;-44
2023/03/24 12:36:49;;;;;;;22.85;3.50;;;13.00;99.90;;;;;;5047841;28;20116;-50
2023/03/24 12:39:28;;;;;;;21.70;3.08;;;12.80;99.90;;;;;;5045179;28;20385;-41
2023/03/24 12:42:02;;;;;;;28.58;3.78;;;13.10;99.90;;;;;;5040697;28;20216;-59
2023/03/24 12:44:45;;;;;;;21.48;3.58;;;13.40;99.90;;;;;;5041497;28;20041;-49
2023/03/24 12:47:32;;;;;;;19.85;2.90;;;13.60;99.90;;;;;;5035740;28;20025;-47
2023/03/24 12:50:06;;;;;;;19.95;2.55;;;13.90;99.90;;;;;;5038547;28;20032;-51
2023/03/24 12:52:49;;;;;;;24.42;3.17;;;13.90;99.90;;;;;;5036510;28;20017;-50
2023/03/24 12:55:39;;;;;;;18.48;3.30;;;13.80;99.90;;;;;;5048439;28;20029;-44
2023/03/24 12:58:10;;;;;;;;;;;13.50;99.90;;;;;;5041661;28;20078;-46
2023/03/24 13:00:42;;;;;;;20.65;2.80;;;13.30;99.90;;;;;;5028719;28;19916;-54
2023/03/24 13:03:25;;;;;;;21.63;3.13;;;13.10;99.90;;;;;;5049935;28;20044;-53
2023/03/24 13:05:56;;;;;;;19.48;3.20;;;13.10;99.90;;;;;;5049333;28;20496;-49